sensor_id;sensor_type;location;lat;lon;timestamp;temperature;humidity
74901;DHT22;63461;51.416;6.758;2022-12-07T00:00:39;6.30;99.90
74901;DHT22;63461;51.416;6.758;2022-12-07T00:03:05;6.30;99.90
74901;DHT22;63461;51.416;6.758;2022-12-07T00:05:31;6.30;99.90
74901;DHT22;63461;51.416;6.758;2022-12-07T00:07:57;6.30;99.90
74901;DHT22;63461;51.416;6.758;2022-12-07T00:10:23;6.30;99.90
74901;DHT22;63461;51.416;6.758;2022-12-07T00:12:48;6.40;99.90
74901;DHT22;63461;51.416;6.758;2022-12-07T00:15:15;6.40;99.90
74901;DHT22;63461;51.416;6.758;2022-12-07T00:17:41;6.40;99.90
74901;DHT22;63461;51.416;6.758;2022-12-07T00:20:07;6.40;99.90
74901;DHT22;63461;51.416;6.758;2022-12-07T00:22:33;6.30;99.90
74901;DHT22;63461;51.416;6.758;2022-12-07T00:24:58;6.30;99.90
74901;DHT22;63461;51.416;6.758;2022-12-07T00:27:24;6.30;99.90
74901;DHT22;63461;51.416;6.758;2022-12-07T00:29:50;6.40;99.90
74901;DHT22;63461;51.416;6.758;2022-12-07T00:32:16;6.40;99.90
74901;DHT22;63461;51.416;6.758;2022-12-07T00:34:42;6.40;99.90
74901;DHT22;63461;51.416;6.758;2022-12-07T00:37:07;6.30;99.90
74901;DHT22;63461;51.416;6.758;2022-12-07T00:39:33;6.30;99.90
74901;DHT22;63461;51.416;6.758;2022-12-07T00:41:59;6.30;99.90
74901;DHT22;63461;51.416;6.758;2022-12-07T00:44:24;6.30;99.90
74901;DHT22;63461;51.416;6.758;2022-12-07T00:46:50;6.20;99.90
74901;DHT22;63461;51.416;6.758;2022-12-07T00:49:16;6.20;99.90
74901;DHT22;63461;51.416;6.758;2022-12-07T00:51:42;6.30;99.90
74901;DHT22;63461;51.416;6.758;2022-12-07T00:54:07;6.30;99.90
74901;DHT22;63461;51.416;6.758;2022-12-07T00:56:33;6.30;99.90
74901;DHT22;63461;51.416;6.758;2022-12-07T00:59:01;6.30;99.90
74901;DHT22;63461;51.416;6.758;2022-12-07T01:01:31;6.30;99.90
74901;DHT22;63461;51.416;6.758;2022-12-07T01:03:57;6.30;99.90
74901;DHT22;63461;51.416;6.758;2022-12-07T01:06:24;6.20;99.90
74901;DHT22;63461;51.416;6.758;2022-12-07T01:08:51;6.20;99.90
74901;DHT22;63461;51.416;6.758;2022-12-07T01:11:19;6.30;99.90
74901;DHT22;63461;51.416;6.758;2022-12-07T01:13:46;6.30;99.90
74901;DHT22;63461;51.416;6.758;2022-12-07T01:16:14;6.20;99.90
74901;DHT22;63461;51.416;6.758;2022-12-07T01:18:41;6.30;99.90
74901;DHT22;63461;51.416;6.758;2022-12-07T01:21:13;6.30;99.90
74901;DHT22;63461;51.416;6.758;2022-12-07T01:23:39;6.20;99.90
74901;DHT22;63461;51.416;6.758;2022-12-07T01:26:09;6.20;99.90
74901;DHT22;63461;51.416;6.758;2022-12-07T01:28:35;6.20;99.90
74901;DHT22;63461;51.416;6.758;2022-12-07T01:31:03;6.20;99.90
74901;DHT22;63461;51.416;6.758;2022-12-07T01:33:32;6.20;99.90
74901;DHT22;63461;51.416;6.758;2022-12-07T01:38:34;6.20;99.90
74901;DHT22;63461;51.416;6.758;2022-12-07T01:41:01;6.20;99.90
74901;DHT22;63461;51.416;6.758;2022-12-07T01:43:29;6.30;99.90
74901;DHT22;63461;51.416;6.758;2022-12-07T01:45:56;6.30;99.90
74901;DHT22;63461;51.416;6.758;2022-12-07T01:48:28;6.30;99.90
74901;DHT22;63461;51.416;6.758;2022-12-07T01:50:56;6.20;99.90
74901;DHT22;63461;51.416;6.758;2022-12-07T01:53:28;6.20;99.90
74901;DHT22;63461;51.416;6.758;2022-12-07T01:55:56;6.10;99.90
74901;DHT22;63461;51.416;6.758;2022-12-07T01:58:24;6.20;99.90
74901;DHT22;63461;51.416;6.758;2022-12-07T02:00:50;6.10;99.90
74901;DHT22;63461;51.416;6.758;2022-12-07T02:03:24;6.10;99.90
74901;DHT22;63461;51.416;6.758;2022-12-07T02:05:53;6.00;99.90
74901;DHT22;63461;51.416;6.758;2022-12-07T02:08:19;6.00;99.90
74901;DHT22;63461;51.416;6.758;2022-12-07T02:10:45;6.00;99.90
74901;DHT22;63461;51.416;6.758;2022-12-07T02:13:21;6.00;99.90
74901;DHT22;63461;51.416;6.758;2022-12-07T02:29:58;6.10;99.90
74901;DHT22;63461;51.416;6.758;2022-12-07T02:32:44;6.00;99.90
74901;DHT22;63461;51.416;6.758;2022-12-07T02:38:03;6.10;99.90
74901;DHT22;63461;51.416;6.758;2022-12-07T02:40:38;6.10;99.90
74901;DHT22;63461;51.416;6.758;2022-12-07T02:43:26;6.00;99.90
74901;DHT22;63461;51.416;6.758;2022-12-07T02:45:58;5.90;99.90
74901;DHT22;63461;51.416;6.758;2022-12-07T02:48:26;5.90;99.90
74901;DHT22;63461;51.416;6.758;2022-12-07T02:50:53;5.90;99.90
74901;DHT22;63461;51.416;6.758;2022-12-07T02:53:37;5.90;99.90
74901;DHT22;63461;51.416;6.758;2022-12-07T02:56:16;5.90;99.90
74901;DHT22;63461;51.416;6.758;2022-12-07T03:04:38;5.80;99.90
74901;DHT22;63461;51.416;6.758;2022-12-07T03:07:16;5.80;99.90
74901;DHT22;63461;51.416;6.758;2022-12-07T03:10:16;5.70;99.90
74901;DHT22;63461;51.416;6.758;2022-12-07T03:13:09;5.80;99.90
74901;DHT22;63461;51.416;6.758;2022-12-07T03:18:29;5.70;99.90
74901;DHT22;63461;51.416;6.758;2022-12-07T03:21:01;5.70;99.90
74901;DHT22;63461;51.416;6.758;2022-12-07T03:23:32;5.70;99.90
74901;DHT22;63461;51.416;6.758;2022-12-07T03:26:00;5.70;99.90
74901;DHT22;63461;51.416;6.758;2022-12-07T03:28:32;5.60;99.90
74901;DHT22;63461;51.416;6.758;2022-12-07T03:31:04;5.60;99.90
74901;DHT22;63461;51.416;6.758;2022-12-07T03:33:38;5.50;99.90
74901;DHT22;63461;51.416;6.758;2022-12-07T03:36:23;5.50;99.90
74901;DHT22;63461;51.416;6.758;2022-12-07T03:39:39;5.50;99.90
74901;DHT22;63461;51.416;6.758;2022-12-07T03:41:44;5.40;99.90
74901;DHT22;63461;51.416;6.758;2022-12-07T03:44:11;5.40;99.90
74901;DHT22;63461;51.416;6.758;2022-12-07T03:46:43;5.50;99.90
74901;DHT22;63461;51.416;6.758;2022-12-07T03:49:22;5.50;99.90
74901;DHT22;63461;51.416;6.758;2022-12-07T03:54:41;5.60;99.90
74901;DHT22;63461;51.416;6.758;2022-12-07T03:57:10;5.60;99.90
74901;DHT22;63461;51.416;6.758;2022-12-07T03:59:38;5.60;99.90
74901;DHT22;63461;51.416;6.758;2022-12-07T04:02:07;5.60;99.90
74901;DHT22;63461;51.416;6.758;2022-12-07T04:04:33;5.70;99.90
74901;DHT22;63461;51.416;6.758;2022-12-07T04:07:00;5.70;99.90
74901;DHT22;63461;51.416;6.758;2022-12-07T04:09:27;5.60;99.90
74901;DHT22;63461;51.416;6.758;2022-12-07T04:11:52;5.70;99.90
74901;DHT22;63461;51.416;6.758;2022-12-07T04:14:18;5.70;99.90
74901;DHT22;63461;51.416;6.758;2022-12-07T04:16:49;5.70;99.90
74901;DHT22;63461;51.416;6.758;2022-12-07T04:19:17;5.70;99.90
74901;DHT22;63461;51.416;6.758;2022-12-07T04:21:43;5.60;99.90
74901;DHT22;63461;51.416;6.758;2022-12-07T04:24:09;5.50;99.90
74901;DHT22;63461;51.416;6.758;2022-12-07T04:26:36;5.50;99.90
74901;DHT22;63461;51.416;6.758;2022-12-07T04:29:01;5.50;99.90
74901;DHT22;63461;51.416;6.758;2022-12-07T04:31:28;5.30;99.90
74901;DHT22;63461;51.416;6.758;2022-12-07T04:33:54;5.40;99.90
74901;DHT22;63461;51.416;6.758;2022-12-07T04:36:20;5.30;99.90
74901;DHT22;63461;51.416;6.758;2022-12-07T04:38:46;5.40;99.90
74901;DHT22;63461;51.416;6.758;2022-12-07T04:41:12;5.40;99.90
74901;DHT22;63461;51.416;6.758;2022-12-07T04:43:38;5.40;99.90
74901;DHT22;63461;51.416;6.758;2022-12-07T04:46:04;5.40;99.90
74901;DHT22;63461;51.416;6.758;2022-12-07T04:48:30;5.40;99.90
74901;DHT22;63461;51.416;6.758;2022-12-07T04:50:56;5.50;99.90
74901;DHT22;63461;51.416;6.758;2022-12-07T04:53:22;5.50;99.90
74901;DHT22;63461;51.416;6.758;2022-12-07T04:55:48;5.50;99.90
74901;DHT22;63461;51.416;6.758;2022-12-07T04:58:14;5.50;99.90
74901;DHT22;63461;51.416;6.758;2022-12-07T05:00:40;5.50;99.90
74901;DHT22;63461;51.416;6.758;2022-12-07T05:03:06;5.50;99.90
74901;DHT22;63461;51.416;6.758;2022-12-07T05:05:32;5.50;99.90
74901;DHT22;63461;51.416;6.758;2022-12-07T05:07:58;5.50;99.90
74901;DHT22;63461;51.416;6.758;2022-12-07T05:10:23;5.60;99.90
74901;DHT22;63461;51.416;6.758;2022-12-07T05:12:49;5.50;99.90
74901;DHT22;63461;51.416;6.758;2022-12-07T05:15:15;5.50;99.90
74901;DHT22;63461;51.416;6.758;2022-12-07T05:17:41;5.40;99.90
74901;DHT22;63461;51.416;6.758;2022-12-07T05:20:07;5.50;99.90
74901;DHT22;63461;51.416;6.758;2022-12-07T05:22:33;5.40;99.90
74901;DHT22;63461;51.416;6.758;2022-12-07T05:24:59;5.50;99.90
74901;DHT22;63461;51.416;6.758;2022-12-07T05:27:25;5.40;99.90
74901;DHT22;63461;51.416;6.758;2022-12-07T05:29:52;5.40;99.90
74901;DHT22;63461;51.416;6.758;2022-12-07T05:32:18;5.50;99.90
74901;DHT22;63461;51.416;6.758;2022-12-07T05:34:44;5.50;99.90
74901;DHT22;63461;51.416;6.758;2022-12-07T05:37:10;5.50;99.90
74901;DHT22;63461;51.416;6.758;2022-12-07T05:39:35;5.50;99.90
74901;DHT22;63461;51.416;6.758;2022-12-07T05:42:03;5.40;99.90
74901;DHT22;63461;51.416;6.758;2022-12-07T05:44:39;5.50;99.90
74901;DHT22;63461;51.416;6.758;2022-12-07T05:47:05;5.50;99.90
74901;DHT22;63461;51.416;6.758;2022-12-07T05:49:31;5.40;99.90
74901;DHT22;63461;51.416;6.758;2022-12-07T05:51:57;5.40;99.90
74901;DHT22;63461;51.416;6.758;2022-12-07T05:54:23;5.50;99.90
74901;DHT22;63461;51.416;6.758;2022-12-07T05:56:48;5.50;99.90
74901;DHT22;63461;51.416;6.758;2022-12-07T05:59:14;5.50;99.90
74901;DHT22;63461;51.416;6.758;2022-12-07T06:01:55;5.60;99.90
74901;DHT22;63461;51.416;6.758;2022-12-07T06:04:21;5.60;99.90
74901;DHT22;63461;51.416;6.758;2022-12-07T06:06:47;5.50;99.90
74901;DHT22;63461;51.416;6.758;2022-12-07T06:09:14;5.50;99.90
74901;DHT22;63461;51.416;6.758;2022-12-07T06:11:40;5.50;99.90
74901;DHT22;63461;51.416;6.758;2022-12-07T06:14:24;5.40;99.90
74901;DHT22;63461;51.416;6.758;2022-12-07T06:16:50;5.40;99.90
74901;DHT22;63461;51.416;6.758;2022-12-07T06:19:16;5.40;99.90
74901;DHT22;63461;51.416;6.758;2022-12-07T06:21:42;5.40;99.90
74901;DHT22;63461;51.416;6.758;2022-12-07T06:24:13;5.40;99.90
74901;DHT22;63461;51.416;6.758;2022-12-07T06:26:39;5.40;99.90
74901;DHT22;63461;51.416;6.758;2022-12-07T06:29:05;5.40;99.90
74901;DHT22;63461;51.416;6.758;2022-12-07T06:31:31;5.40;99.90
74901;DHT22;63461;51.416;6.758;2022-12-07T06:33:58;5.30;99.90
74901;DHT22;63461;51.416;6.758;2022-12-07T06:36:24;5.30;99.90
74901;DHT22;63461;51.416;6.758;2022-12-07T06:38:50;5.40;99.90
74901;DHT22;63461;51.416;6.758;2022-12-07T06:41:16;5.40;99.90
74901;DHT22;63461;51.416;6.758;2022-12-07T06:43:41;5.40;99.90
74901;DHT22;63461;51.416;6.758;2022-12-07T06:46:07;5.40;99.90
74901;DHT22;63461;51.416;6.758;2022-12-07T06:48:33;5.40;99.90
74901;DHT22;63461;51.416;6.758;2022-12-07T06:50:59;5.40;99.90
74901;DHT22;63461;51.416;6.758;2022-12-07T06:53:27;5.40;99.90
74901;DHT22;63461;51.416;6.758;2022-12-07T06:55:53;5.50;99.90
74901;DHT22;63461;51.416;6.758;2022-12-07T06:58:19;5.40;99.90
74901;DHT22;63461;51.416;6.758;2022-12-07T07:00:45;5.40;99.90
74901;DHT22;63461;51.416;6.758;2022-12-07T07:03:11;5.40;99.90
74901;DHT22;63461;51.416;6.758;2022-12-07T07:05:36;5.40;99.90
74901;DHT22;63461;51.416;6.758;2022-12-07T07:08:02;5.40;99.90
74901;DHT22;63461;51.416;6.758;2022-12-07T07:10:28;5.40;99.90
74901;DHT22;63461;51.416;6.758;2022-12-07T07:12:54;5.30;99.90
74901;DHT22;63461;51.416;6.758;2022-12-07T07:15:20;5.30;99.90
74901;DHT22;63461;51.416;6.758;2022-12-07T07:17:45;5.30;99.90
74901;DHT22;63461;51.416;6.758;2022-12-07T07:20:11;5.40;99.90
74901;DHT22;63461;51.416;6.758;2022-12-07T07:22:37;5.40;99.90
74901;DHT22;63461;51.416;6.758;2022-12-07T07:25:03;5.40;99.90
74901;DHT22;63461;51.416;6.758;2022-12-07T07:27:29;5.40;99.90
74901;DHT22;63461;51.416;6.758;2022-12-07T07:29:55;5.30;99.90
74901;DHT22;63461;51.416;6.758;2022-12-07T07:32:21;5.30;99.90
74901;DHT22;63461;51.416;6.758;2022-12-07T07:34:47;5.20;99.90
74901;DHT22;63461;51.416;6.758;2022-12-07T07:37:13;5.30;99.90
74901;DHT22;63461;51.416;6.758;2022-12-07T07:39:39;5.40;99.90
74901;DHT22;63461;51.416;6.758;2022-12-07T07:42:06;5.40;99.90
74901;DHT22;63461;51.416;6.758;2022-12-07T07:44:33;5.30;99.90
74901;DHT22;63461;51.416;6.758;2022-12-07T07:47:00;5.30;99.90
74901;DHT22;63461;51.416;6.758;2022-12-07T07:49:26;5.30;99.90
74901;DHT22;63461;51.416;6.758;2022-12-07T07:51:52;5.30;99.90
74901;DHT22;63461;51.416;6.758;2022-12-07T07:54:18;5.20;99.90
74901;DHT22;63461;51.416;6.758;2022-12-07T07:56:44;5.20;99.90
74901;DHT22;63461;51.416;6.758;2022-12-07T07:59:09;5.20;99.90
74901;DHT22;63461;51.416;6.758;2022-12-07T08:01:35;5.20;99.90
74901;DHT22;63461;51.416;6.758;2022-12-07T08:04:01;5.20;99.90
74901;DHT22;63461;51.416;6.758;2022-12-07T08:06:26;5.30;99.90
74901;DHT22;63461;51.416;6.758;2022-12-07T08:08:52;5.10;99.90
74901;DHT22;63461;51.416;6.758;2022-12-07T08:11:18;5.10;99.90
74901;DHT22;63461;51.416;6.758;2022-12-07T08:13:47;5.20;99.90
74901;DHT22;63461;51.416;6.758;2022-12-07T08:16:13;5.10;99.90
74901;DHT22;63461;51.416;6.758;2022-12-07T08:18:41;5.00;99.90
74901;DHT22;63461;51.416;6.758;2022-12-07T08:21:08;5.00;99.90
74901;DHT22;63461;51.416;6.758;2022-12-07T08:23:35;5.00;99.90
74901;DHT22;63461;51.416;6.758;2022-12-07T08:26:05;5.00;99.90
74901;DHT22;63461;51.416;6.758;2022-12-07T08:28:32;5.00;99.90
74901;DHT22;63461;51.416;6.758;2022-12-07T08:31:05;5.00;99.90
74901;DHT22;63461;51.416;6.758;2022-12-07T08:33:31;5.10;99.90
74901;DHT22;63461;51.416;6.758;2022-12-07T08:36:02;5.00;99.90
74901;DHT22;63461;51.416;6.758;2022-12-07T08:38:28;5.00;99.90
74901;DHT22;63461;51.416;6.758;2022-12-07T08:40:57;5.00;99.90
74901;DHT22;63461;51.416;6.758;2022-12-07T08:43:24;5.00;99.90
74901;DHT22;63461;51.416;6.758;2022-12-07T08:46:18;4.90;99.90
74901;DHT22;63461;51.416;6.758;2022-12-07T08:48:56;4.90;99.90
74901;DHT22;63461;51.416;6.758;2022-12-07T08:51:24;5.00;99.90
74901;DHT22;63461;51.416;6.758;2022-12-07T08:53:51;5.20;99.90
74901;DHT22;63461;51.416;6.758;2022-12-07T08:56:17;5.30;99.90
74901;DHT22;63461;51.416;6.758;2022-12-07T08:58:43;5.20;99.90
74901;DHT22;63461;51.416;6.758;2022-12-07T09:01:09;5.20;99.90
74901;DHT22;63461;51.416;6.758;2022-12-07T09:03:35;5.10;99.90
74901;DHT22;63461;51.416;6.758;2022-12-07T09:06:01;5.10;99.90
74901;DHT22;63461;51.416;6.758;2022-12-07T09:08:34;5.10;99.90
74901;DHT22;63461;51.416;6.758;2022-12-07T09:11:02;5.20;99.90
74901;DHT22;63461;51.416;6.758;2022-12-07T09:13:28;5.30;99.90
74901;DHT22;63461;51.416;6.758;2022-12-07T09:15:53;5.40;99.90
74901;DHT22;63461;51.416;6.758;2022-12-07T09:18:19;5.50;99.90
74901;DHT22;63461;51.416;6.758;2022-12-07T09:20:45;5.60;99.90
74901;DHT22;63461;51.416;6.758;2022-12-07T09:23:10;5.60;99.90
74901;DHT22;63461;51.416;6.758;2022-12-07T09:25:36;5.70;99.90
74901;DHT22;63461;51.416;6.758;2022-12-07T09:28:02;5.70;99.90
74901;DHT22;63461;51.416;6.758;2022-12-07T09:30:28;5.70;99.90
74901;DHT22;63461;51.416;6.758;2022-12-07T09:32:55;5.80;99.90
74901;DHT22;63461;51.416;6.758;2022-12-07T09:35:21;5.80;99.90
74901;DHT22;63461;51.416;6.758;2022-12-07T09:37:47;5.80;99.90
74901;DHT22;63461;51.416;6.758;2022-12-07T09:40:15;5.80;99.90
74901;DHT22;63461;51.416;6.758;2022-12-07T09:42:44;5.80;99.90
74901;DHT22;63461;51.416;6.758;2022-12-07T09:45:21;5.80;99.90
74901;DHT22;63461;51.416;6.758;2022-12-07T09:47:48;5.70;99.90
74901;DHT22;63461;51.416;6.758;2022-12-07T09:50:20;5.80;99.90
74901;DHT22;63461;51.416;6.758;2022-12-07T09:52:47;5.60;99.90
74901;DHT22;63461;51.416;6.758;2022-12-07T09:55:16;5.70;99.90
74901;DHT22;63461;51.416;6.758;2022-12-07T09:57:45;5.70;99.90
74901;DHT22;63461;51.416;6.758;2022-12-07T10:00:20;5.70;99.90
74901;DHT22;63461;51.416;6.758;2022-12-07T10:02:56;5.60;99.90
74901;DHT22;63461;51.416;6.758;2022-12-07T10:05:42;5.60;99.90
74901;DHT22;63461;51.416;6.758;2022-12-07T10:08:12;5.70;99.90
74901;DHT22;63461;51.416;6.758;2022-12-07T10:10:39;5.80;99.90
74901;DHT22;63461;51.416;6.758;2022-12-07T10:13:13;5.80;99.90
74901;DHT22;63461;51.416;6.758;2022-12-07T10:23:28;6.10;99.90
74901;DHT22;63461;51.416;6.758;2022-12-07T10:25:54;6.10;99.90
74901;DHT22;63461;51.416;6.758;2022-12-07T10:28:21;6.20;99.90
74901;DHT22;63461;51.416;6.758;2022-12-07T10:30:50;6.30;99.90
74901;DHT22;63461;51.416;6.758;2022-12-07T10:35:54;6.40;99.90
74901;DHT22;63461;51.416;6.758;2022-12-07T10:38:20;6.40;99.90
74901;DHT22;63461;51.416;6.758;2022-12-07T10:40:46;6.40;99.90
74901;DHT22;63461;51.416;6.758;2022-12-07T10:49:34;6.40;99.90
74901;DHT22;63461;51.416;6.758;2022-12-07T10:51:33;6.40;99.90
74901;DHT22;63461;51.416;6.758;2022-12-07T10:54:12;6.50;99.90
74901;DHT22;63461;51.416;6.758;2022-12-07T10:56:53;6.60;99.90
74901;DHT22;63461;51.416;6.758;2022-12-07T11:07:53;6.80;99.90
74901;DHT22;63461;51.416;6.758;2022-12-07T11:13:24;6.80;99.90
74901;DHT22;63461;51.416;6.758;2022-12-07T11:16:03;6.80;99.90
74901;DHT22;63461;51.416;6.758;2022-12-07T11:21:57;6.80;99.90
74901;DHT22;63461;51.416;6.758;2022-12-07T11:24:44;6.80;99.90
74901;DHT22;63461;51.416;6.758;2022-12-07T11:27:43;7.00;99.90
74901;DHT22;63461;51.416;6.758;2022-12-07T11:30:13;7.00;99.90
74901;DHT22;63461;51.416;6.758;2022-12-07T11:33:13;7.00;99.90
74901;DHT22;63461;51.416;6.758;2022-12-07T11:36:02;6.90;99.90
74901;DHT22;63461;51.416;6.758;2022-12-07T11:38:50;7.00;99.90
74901;DHT22;63461;51.416;6.758;2022-12-07T11:41:23;7.10;99.90
74901;DHT22;63461;51.416;6.758;2022-12-07T11:47:09;7.00;99.90
74901;DHT22;63461;51.416;6.758;2022-12-07T11:50:09;6.90;99.90
74901;DHT22;63461;51.416;6.758;2022-12-07T11:52:48;7.00;99.90
74901;DHT22;63461;51.416;6.758;2022-12-07T11:55:43;7.00;99.90
74901;DHT22;63461;51.416;6.758;2022-12-07T11:58:42;7.00;99.90
74901;DHT22;63461;51.416;6.758;2022-12-07T12:01:15;7.00;99.90
74901;DHT22;63461;51.416;6.758;2022-12-07T12:03:49;7.10;99.90
74901;DHT22;63461;51.416;6.758;2022-12-07T12:06:15;7.10;99.90
74901;DHT22;63461;51.416;6.758;2022-12-07T12:09:05;7.20;99.90
74901;DHT22;63461;51.416;6.758;2022-12-07T12:19:41;7.10;99.90
74901;DHT22;63461;51.416;6.758;2022-12-07T12:22:15;7.20;99.90
74901;DHT22;63461;51.416;6.758;2022-12-07T12:24:45;7.20;99.90
74901;DHT22;63461;51.416;6.758;2022-12-07T12:27:25;7.30;99.90
74901;DHT22;63461;51.416;6.758;2022-12-07T12:29:57;7.30;99.90
74901;DHT22;63461;51.416;6.758;2022-12-07T12:32:41;7.20;99.90
74901;DHT22;63461;51.416;6.758;2022-12-07T12:37:53;7.20;99.90
74901;DHT22;63461;51.416;6.758;2022-12-07T12:42:52;7.30;99.90
74901;DHT22;63461;51.416;6.758;2022-12-07T12:48:04;7.20;99.90
74901;DHT22;63461;51.416;6.758;2022-12-07T12:50:37;7.10;99.90
74901;DHT22;63461;51.416;6.758;2022-12-07T13:03:54;7.10;99.90
74901;DHT22;63461;51.416;6.758;2022-12-07T13:06:34;7.00;99.90
74901;DHT22;63461;51.416;6.758;2022-12-07T13:09:01;7.10;99.90
74901;DHT22;63461;51.416;6.758;2022-12-07T13:11:42;7.10;99.90
74901;DHT22;63461;51.416;6.758;2022-12-07T13:20:02;7.10;99.90
74901;DHT22;63461;51.416;6.758;2022-12-07T13:25:17;7.00;99.90
74901;DHT22;63461;51.416;6.758;2022-12-07T13:28:01;7.10;99.90
74901;DHT22;63461;51.416;6.758;2022-12-07T13:30:27;7.20;99.90
74901;DHT22;63461;51.416;6.758;2022-12-07T13:32:56;7.10;99.90
74901;DHT22;63461;51.416;6.758;2022-12-07T13:35:33;7.10;99.90
74901;DHT22;63461;51.416;6.758;2022-12-07T13:38:32;7.10;99.90
74901;DHT22;63461;51.416;6.758;2022-12-07T13:41:13;7.10;99.90
74901;DHT22;63461;51.416;6.758;2022-12-07T13:44:34;7.00;99.90
74901;DHT22;63461;51.416;6.758;2022-12-07T13:46:42;7.00;99.90
74901;DHT22;63461;51.416;6.758;2022-12-07T13:49:19;7.00;99.90
74901;DHT22;63461;51.416;6.758;2022-12-07T13:51:45;6.90;99.90
74901;DHT22;63461;51.416;6.758;2022-12-07T13:54:12;6.90;99.90
74901;DHT22;63461;51.416;6.758;2022-12-07T13:56:39;6.90;99.90
74901;DHT22;63461;51.416;6.758;2022-12-07T13:59:23;6.90;99.90
74901;DHT22;63461;51.416;6.758;2022-12-07T14:01:50;7.00;99.90
74901;DHT22;63461;51.416;6.758;2022-12-07T14:04:34;7.00;99.90
74901;DHT22;63461;51.416;6.758;2022-12-07T14:07:01;6.90;99.90
74901;DHT22;63461;51.416;6.758;2022-12-07T14:09:57;6.90;99.90
74901;DHT22;63461;51.416;6.758;2022-12-07T14:12:24;6.90;99.90
74901;DHT22;63461;51.416;6.758;2022-12-07T14:14:51;7.00;99.90
74901;DHT22;63461;51.416;6.758;2022-12-07T14:17:23;6.90;99.90
74901;DHT22;63461;51.416;6.758;2022-12-07T14:19:59;6.80;99.90
74901;DHT22;63461;51.416;6.758;2022-12-07T14:24:59;6.70;99.90
74901;DHT22;63461;51.416;6.758;2022-12-07T14:27:31;6.70;99.90
74901;DHT22;63461;51.416;6.758;2022-12-07T14:30:00;6.60;99.90
74901;DHT22;63461;51.416;6.758;2022-12-07T14:32:28;6.60;99.90
74901;DHT22;63461;51.416;6.758;2022-12-07T14:35:08;6.60;99.90
74901;DHT22;63461;51.416;6.758;2022-12-07T14:37:36;6.50;99.90
74901;DHT22;63461;51.416;6.758;2022-12-07T14:40:03;6.50;99.90
74901;DHT22;63461;51.416;6.758;2022-12-07T14:42:30;6.50;99.90
74901;DHT22;63461;51.416;6.758;2022-12-07T14:44:57;6.50;99.90
74901;DHT22;63461;51.416;6.758;2022-12-07T14:47:24;6.40;99.90
74901;DHT22;63461;51.416;6.758;2022-12-07T14:49:50;6.40;99.90
74901;DHT22;63461;51.416;6.758;2022-12-07T14:52:27;6.40;99.90
74901;DHT22;63461;51.416;6.758;2022-12-07T14:54:53;6.30;99.90
74901;DHT22;63461;51.416;6.758;2022-12-07T14:57:19;6.30;99.90
74901;DHT22;63461;51.416;6.758;2022-12-07T14:59:45;6.20;99.90
74901;DHT22;63461;51.416;6.758;2022-12-07T15:02:12;6.20;99.90
74901;DHT22;63461;51.416;6.758;2022-12-07T15:04:39;6.20;99.90
74901;DHT22;63461;51.416;6.758;2022-12-07T15:07:09;6.20;99.90
74901;DHT22;63461;51.416;6.758;2022-12-07T15:09:35;6.20;99.90
74901;DHT22;63461;51.416;6.758;2022-12-07T15:12:01;6.10;99.90
74901;DHT22;63461;51.416;6.758;2022-12-07T15:14:28;6.20;99.90
74901;DHT22;63461;51.416;6.758;2022-12-07T15:16:53;6.10;99.90
74901;DHT22;63461;51.416;6.758;2022-12-07T15:19:21;6.10;99.90
74901;DHT22;63461;51.416;6.758;2022-12-07T15:21:52;6.10;99.90
74901;DHT22;63461;51.416;6.758;2022-12-07T15:24:18;6.10;99.90
74901;DHT22;63461;51.416;6.758;2022-12-07T15:26:44;6.10;99.90
74901;DHT22;63461;51.416;6.758;2022-12-07T15:29:10;6.10;99.90
74901;DHT22;63461;51.416;6.758;2022-12-07T15:31:37;6.00;99.90
74901;DHT22;63461;51.416;6.758;2022-12-07T15:34:03;6.00;99.90
74901;DHT22;63461;51.416;6.758;2022-12-07T15:36:31;6.00;99.90
74901;DHT22;63461;51.416;6.758;2022-12-07T15:38:57;6.00;99.90
74901;DHT22;63461;51.416;6.758;2022-12-07T15:41:23;6.00;99.90
74901;DHT22;63461;51.416;6.758;2022-12-07T15:43:48;6.00;99.90
74901;DHT22;63461;51.416;6.758;2022-12-07T15:46:39;6.00;99.90
74901;DHT22;63461;51.416;6.758;2022-12-07T15:49:14;6.10;99.90
74901;DHT22;63461;51.416;6.758;2022-12-07T15:51:41;6.10;99.90
74901;DHT22;63461;51.416;6.758;2022-12-07T15:54:09;6.10;99.90
74901;DHT22;63461;51.416;6.758;2022-12-07T15:56:37;6.10;99.90
74901;DHT22;63461;51.416;6.758;2022-12-07T15:59:02;6.00;99.90
74901;DHT22;63461;51.416;6.758;2022-12-07T16:01:28;6.10;99.90
74901;DHT22;63461;51.416;6.758;2022-12-07T16:03:54;6.20;99.90
74901;DHT22;63461;51.416;6.758;2022-12-07T16:06:22;6.20;99.90
74901;DHT22;63461;51.416;6.758;2022-12-07T16:08:48;6.20;99.90
74901;DHT22;63461;51.416;6.758;2022-12-07T16:11:14;6.20;99.90
74901;DHT22;63461;51.416;6.758;2022-12-07T16:13:40;6.20;99.90
74901;DHT22;63461;51.416;6.758;2022-12-07T16:16:10;6.10;99.90
74901;DHT22;63461;51.416;6.758;2022-12-07T16:18:36;6.20;99.90
74901;DHT22;63461;51.416;6.758;2022-12-07T16:21:02;6.20;99.90
74901;DHT22;63461;51.416;6.758;2022-12-07T16:23:28;6.20;99.90
74901;DHT22;63461;51.416;6.758;2022-12-07T16:25:54;6.10;99.90
74901;DHT22;63461;51.416;6.758;2022-12-07T16:28:20;6.20;99.90
74901;DHT22;63461;51.416;6.758;2022-12-07T16:30:46;6.20;99.90
74901;DHT22;63461;51.416;6.758;2022-12-07T16:33:12;6.20;99.90
74901;DHT22;63461;51.416;6.758;2022-12-07T16:35:41;6.20;99.90
74901;DHT22;63461;51.416;6.758;2022-12-07T16:38:07;6.20;99.90
74901;DHT22;63461;51.416;6.758;2022-12-07T16:40:33;6.20;99.90
74901;DHT22;63461;51.416;6.758;2022-12-07T16:42:58;6.20;99.90
74901;DHT22;63461;51.416;6.758;2022-12-07T16:45:24;6.20;99.90
74901;DHT22;63461;51.416;6.758;2022-12-07T16:47:50;6.20;99.90
74901;DHT22;63461;51.416;6.758;2022-12-07T16:50:16;6.30;99.90
74901;DHT22;63461;51.416;6.758;2022-12-07T16:52:42;6.30;99.90
74901;DHT22;63461;51.416;6.758;2022-12-07T16:55:08;6.20;99.90
74901;DHT22;63461;51.416;6.758;2022-12-07T16:57:34;6.30;99.90
74901;DHT22;63461;51.416;6.758;2022-12-07T16:59:59;6.30;99.90
74901;DHT22;63461;51.416;6.758;2022-12-07T17:02:25;6.30;99.90
74901;DHT22;63461;51.416;6.758;2022-12-07T17:04:51;6.20;99.90
74901;DHT22;63461;51.416;6.758;2022-12-07T17:07:17;6.30;99.90
74901;DHT22;63461;51.416;6.758;2022-12-07T17:09:42;6.30;99.90
74901;DHT22;63461;51.416;6.758;2022-12-07T17:12:08;6.20;99.90
74901;DHT22;63461;51.416;6.758;2022-12-07T17:14:34;6.20;99.90
74901;DHT22;63461;51.416;6.758;2022-12-07T17:17:19;6.20;99.90
74901;DHT22;63461;51.416;6.758;2022-12-07T17:19:45;6.20;99.90
74901;DHT22;63461;51.416;6.758;2022-12-07T17:22:10;6.10;99.90
74901;DHT22;63461;51.416;6.758;2022-12-07T17:24:38;6.10;99.90
74901;DHT22;63461;51.416;6.758;2022-12-07T17:27:04;6.10;99.90
74901;DHT22;63461;51.416;6.758;2022-12-07T17:29:29;6.10;99.90
74901;DHT22;63461;51.416;6.758;2022-12-07T17:31:55;6.10;99.90
74901;DHT22;63461;51.416;6.758;2022-12-07T17:34:21;6.10;99.90
74901;DHT22;63461;51.416;6.758;2022-12-07T17:36:47;6.10;99.90
74901;DHT22;63461;51.416;6.758;2022-12-07T17:39:15;6.20;99.90
74901;DHT22;63461;51.416;6.758;2022-12-07T17:41:42;6.20;99.90